sensor_id;sensor_type;location;lat;lon;timestamp;P1;durP1;ratioP1;P2;durP2;ratioP2
23866;SDS011;12114;53.404;-1.502;2022-08-21T00:01:05;9.30;;;2.25;;
23866;SDS011;12114;53.404;-1.502;2022-08-21T00:03:31;8.75;;;2.70;;
23866;SDS011;12114;53.404;-1.502;2022-08-21T00:05:57;11.88;;;2.20;;
23866;SDS011;12114;53.404;-1.502;2022-08-21T00:08:23;14.55;;;3.00;;
23866;SDS011;12114;53.404;-1.502;2022-08-21T00:10:48;12.75;;;2.67;;
23866;SDS011;12114;53.404;-1.502;2022-08-21T00:13:14;11.75;;;2.35;;
23866;SDS011;12114;53.404;-1.502;2022-08-21T00:15:40;7.13;;;1.83;;
23866;SDS011;12114;53.404;-1.502;2022-08-21T00:18:06;12.50;;;2.38;;
23866;SDS011;12114;53.404;-1.502;2022-08-21T00:20:33;10.43;;;2.05;;
23866;SDS011;12114;53.404;-1.502;2022-08-21T00:22:59;9.13;;;1.90;;
23866;SDS011;12114;53.404;-1.502;2022-08-21T00:25:25;8.85;;;2.22;;
23866;SDS011;12114;53.404;-1.502;2022-08-21T00:27:50;9.52;;;3.30;;
23866;SDS011;12114;53.404;-1.502;2022-08-21T00:30:17;12.80;;;2.85;;
23866;SDS011;12114;53.404;-1.502;2022-08-21T00:32:42;12.98;;;4.40;;
23866;SDS011;12114;53.404;-1.502;2022-08-21T00:35:13;12.30;;;2.05;;
23866;SDS011;12114;53.404;-1.502;2022-08-21T00:37:39;11.00;;;2.40;;
23866;SDS011;12114;53.404;-1.502;2022-08-21T00:40:05;9.48;;;2.05;;
23866;SDS011;12114;53.404;-1.502;2022-08-21T00:42:31;10.55;;;2.33;;
23866;SDS011;12114;53.404;-1.502;2022-08-21T00:44:56;9.73;;;1.98;;
23866;SDS011;12114;53.404;-1.502;2022-08-21T00:47:22;8.95;;;2.10;;
23866;SDS011;12114;53.404;-1.502;2022-08-21T00:49:48;14.68;;;2.75;;
23866;SDS011;12114;53.404;-1.502;2022-08-21T00:52:15;12.52;;;2.13;;
23866;SDS011;12114;53.404;-1.502;2022-08-21T00:54:42;11.27;;;2.63;;
23866;SDS011;12114;53.404;-1.502;2022-08-21T00:57:11;13.27;;;2.53;;
23866;SDS011;12114;53.404;-1.502;2022-08-21T00:59:38;12.02;;;2.30;;
23866;SDS011;12114;53.404;-1.502;2022-08-21T01:02:06;9.90;;;2.53;;
23866;SDS011;12114;53.404;-1.502;2022-08-21T01:04:32;10.52;;;2.10;;
23866;SDS011;12114;53.404;-1.502;2022-08-21T01:06:58;6.38;;;2.08;;
23866;SDS011;12114;53.404;-1.502;2022-08-21T01:09:23;8.65;;;1.95;;
23866;SDS011;12114;53.404;-1.502;2022-08-21T01:11:49;11.40;;;2.63;;
23866;SDS011;12114;53.404;-1.502;2022-08-21T01:14:15;8.00;;;1.92;;
23866;SDS011;12114;53.404;-1.502;2022-08-21T01:16:42;9.00;;;2.35;;
23866;SDS011;12114;53.404;-1.502;2022-08-21T01:19:09;9.52;;;2.17;;
23866;SDS011;12114;53.404;-1.502;2022-08-21T01:21:36;11.55;;;2.33;;
23866;SDS011;12114;53.404;-1.502;2022-08-21T01:24:04;9.80;;;2.45;;
23866;SDS011;12114;53.404;-1.502;2022-08-21T01:26:31;10.30;;;2.75;;
23866;SDS011;12114;53.404;-1.502;2022-08-21T01:29:41;11.25;;;2.25;;
23866;SDS011;12114;53.404;-1.502;2022-08-21T01:31:46;8.57;;;2.03;;
23866;SDS011;12114;53.404;-1.502;2022-08-21T01:34:11;10.50;;;2.45;;
23866;SDS011;12114;53.404;-1.502;2022-08-21T01:36:37;9.93;;;2.20;;
23866;SDS011;12114;53.404;-1.502;2022-08-21T01:39:03;11.23;;;2.25;;
23866;SDS011;12114;53.404;-1.502;2022-08-21T01:41:31;10.90;;;2.45;;
23866;SDS011;12114;53.404;-1.502;2022-08-21T01:43:57;9.07;;;2.38;;
23866;SDS011;12114;53.404;-1.502;2022-08-21T01:46:22;10.65;;;2.15;;
23866;SDS011;12114;53.404;-1.502;2022-08-21T01:48:48;11.75;;;2.40;;
23866;SDS011;12114;53.404;-1.502;2022-08-21T01:51:13;8.55;;;2.42;;
23866;SDS011;12114;53.404;-1.502;2022-08-21T01:53:41;11.50;;;2.50;;
23866;SDS011;12114;53.404;-1.502;2022-08-21T01:56:08;16.63;;;3.10;;
23866;SDS011;12114;53.404;-1.502;2022-08-21T01:58:33;9.82;;;2.05;;
23866;SDS011;12114;53.404;-1.502;2022-08-21T02:00:59;9.70;;;2.53;;
23866;SDS011;12114;53.404;-1.502;2022-08-21T02:03:28;13.98;;;2.40;;
23866;SDS011;12114;53.404;-1.502;2022-08-21T02:05:53;14.80;;;2.90;;
23866;SDS011;12114;53.404;-1.502;2022-08-21T02:08:18;9.63;;;2.28;;
23866;SDS011;12114;53.404;-1.502;2022-08-21T02:10:44;11.65;;;2.45;;
23866;SDS011;12114;53.404;-1.502;2022-08-21T02:13:11;11.25;;;2.38;;
23866;SDS011;12114;53.404;-1.502;2022-08-21T02:15:37;17.80;;;3.22;;
23866;SDS011;12114;53.404;-1.502;2022-08-21T02:18:02;11.75;;;2.80;;
23866;SDS011;12114;53.404;-1.502;2022-08-21T02:20:35;12.18;;;2.47;;
23866;SDS011;12114;53.404;-1.502;2022-08-21T02:23:03;11.98;;;2.45;;
23866;SDS011;12114;53.404;-1.502;2022-08-21T02:25:32;13.63;;;2.55;;
23866;SDS011;12114;53.404;-1.502;2022-08-21T02:27:57;12.05;;;2.42;;
23866;SDS011;12114;53.404;-1.502;2022-08-21T02:30:25;10.45;;;2.90;;
23866;SDS011;12114;53.404;-1.502;2022-08-21T02:32:54;11.40;;;2.45;;
23866;SDS011;12114;53.404;-1.502;2022-08-21T02:35:19;9.68;;;1.83;;
23866;SDS011;12114;53.404;-1.502;2022-08-21T02:37:56;18.65;;;3.08;;
23866;SDS011;12114;53.404;-1.502;2022-08-21T02:40:23;16.25;;;3.13;;
23866;SDS011;12114;53.404;-1.502;2022-08-21T02:42:48;10.40;;;2.30;;
23866;SDS011;12114;53.404;-1.502;2022-08-21T02:45:14;10.82;;;2.55;;
23866;SDS011;12114;53.404;-1.502;2022-08-21T02:47:46;14.00;;;3.03;;
23866;SDS011;12114;53.404;-1.502;2022-08-21T02:50:11;11.82;;;2.95;;
23866;SDS011;12114;53.404;-1.502;2022-08-21T02:52:37;10.63;;;3.10;;
23866;SDS011;12114;53.404;-1.502;2022-08-21T02:55:02;12.35;;;2.38;;
23866;SDS011;12114;53.404;-1.502;2022-08-21T02:57:28;6.18;;;2.45;;
23866;SDS011;12114;53.404;-1.502;2022-08-21T02:59:53;13.85;;;2.95;;
23866;SDS011;12114;53.404;-1.502;2022-08-21T03:02:18;16.33;;;2.80;;
23866;SDS011;12114;53.404;-1.502;2022-08-21T03:04:44;10.13;;;2.65;;
23866;SDS011;12114;53.404;-1.502;2022-08-21T03:07:09;10.75;;;2.53;;
23866;SDS011;12114;53.404;-1.502;2022-08-21T03:09:35;10.18;;;2.40;;
23866;SDS011;12114;53.404;-1.502;2022-08-21T03:12:03;13.50;;;3.10;;
23866;SDS011;12114;53.404;-1.502;2022-08-21T03:14:31;16.10;;;2.65;;
23866;SDS011;12114;53.404;-1.502;2022-08-21T03:16:56;13.38;;;2.78;;
23866;SDS011;12114;53.404;-1.502;2022-08-21T03:19:22;13.13;;;2.80;;
23866;SDS011;12114;53.404;-1.502;2022-08-21T03:21:47;10.98;;;2.70;;
23866;SDS011;12114;53.404;-1.502;2022-08-21T03:24:13;12.38;;;2.90;;
23866;SDS011;12114;53.404;-1.502;2022-08-21T03:26:38;10.30;;;2.67;;
23866;SDS011;12114;53.404;-1.502;2022-08-21T03:29:04;15.77;;;3.08;;
23866;SDS011;12114;53.404;-1.502;2022-08-21T03:31:30;16.52;;;3.05;;
23866;SDS011;12114;53.404;-1.502;2022-08-21T03:33:57;7.85;;;2.50;;
23866;SDS011;12114;53.404;-1.502;2022-08-21T03:36:22;7.25;;;2.40;;
23866;SDS011;12114;53.404;-1.502;2022-08-21T03:38:47;11.18;;;2.30;;
23866;SDS011;12114;53.404;-1.502;2022-08-21T03:41:13;13.35;;;2.80;;
23866;SDS011;12114;53.404;-1.502;2022-08-21T03:43:38;11.35;;;2.88;;
23866;SDS011;12114;53.404;-1.502;2022-08-21T03:46:04;9.68;;;2.75;;
23866;SDS011;12114;53.404;-1.502;2022-08-21T03:48:30;10.18;;;2.60;;
23866;SDS011;12114;53.404;-1.502;2022-08-21T03:50:55;13.13;;;3.13;;
23866;SDS011;12114;53.404;-1.502;2022-08-21T03:53:21;13.82;;;3.25;;
23866;SDS011;12114;53.404;-1.502;2022-08-21T03:55:47;12.82;;;2.50;;
23866;SDS011;12114;53.404;-1.502;2022-08-21T03:58:14;11.68;;;2.95;;
23866;SDS011;12114;53.404;-1.502;2022-08-21T04:00:40;13.55;;;3.22;;
23866;SDS011;12114;53.404;-1.502;2022-08-21T04:03:05;17.55;;;3.10;;
23866;SDS011;12114;53.404;-1.502;2022-08-21T04:05:31;17.35;;;3.30;;
23866;SDS011;12114;53.404;-1.502;2022-08-21T04:07:58;15.65;;;3.55;;
23866;SDS011;12114;53.404;-1.502;2022-08-21T04:10:25;16.30;;;3.45;;
23866;SDS011;12114;53.404;-1.502;2022-08-21T04:12:59;15.75;;;3.40;;
23866;SDS011;12114;53.404;-1.502;2022-08-21T04:15:25;16.98;;;3.63;;
23866;SDS011;12114;53.404;-1.502;2022-08-21T04:17:51;17.13;;;3.55;;
23866;SDS011;12114;53.404;-1.502;2022-08-21T04:20:17;15.02;;;4.45;;
23866;SDS011;12114;53.404;-1.502;2022-08-21T04:22:42;13.50;;;4.05;;
23866;SDS011;12114;53.404;-1.502;2022-08-21T04:25:08;14.27;;;4.85;;
23866;SDS011;12114;53.404;-1.502;2022-08-21T04:27:34;15.73;;;4.40;;
23866;SDS011;12114;53.404;-1.502;2022-08-21T04:29:59;14.60;;;4.75;;
23866;SDS011;12114;53.404;-1.502;2022-08-21T04:32:26;15.60;;;4.90;;
23866;SDS011;12114;53.404;-1.502;2022-08-21T04:35:02;12.98;;;5.55;;
23866;SDS011;12114;53.404;-1.502;2022-08-21T04:37:29;15.10;;;4.95;;
23866;SDS011;12114;53.404;-1.502;2022-08-21T04:39:55;17.25;;;5.70;;
23866;SDS011;12114;53.404;-1.502;2022-08-21T04:42:23;11.23;;;5.18;;
23866;SDS011;12114;53.404;-1.502;2022-08-21T04:44:49;12.82;;;4.85;;
23866;SDS011;12114;53.404;-1.502;2022-08-21T04:47:14;13.93;;;5.68;;
23866;SDS011;12114;53.404;-1.502;2022-08-21T04:49:41;15.23;;;6.80;;
23866;SDS011;12114;53.404;-1.502;2022-08-21T04:52:06;18.52;;;6.30;;
23866;SDS011;12114;53.404;-1.502;2022-08-21T04:54:32;16.35;;;5.88;;
23866;SDS011;12114;53.404;-1.502;2022-08-21T04:56:59;16.75;;;6.40;;
23866;SDS011;12114;53.404;-1.502;2022-08-21T04:59:32;16.83;;;5.65;;
23866;SDS011;12114;53.404;-1.502;2022-08-21T05:01:59;10.38;;;5.28;;
23866;SDS011;12114;53.404;-1.502;2022-08-21T05:04:25;16.90;;;5.40;;
23866;SDS011;12114;53.404;-1.502;2022-08-21T05:06:52;16.05;;;5.63;;
23866;SDS011;12114;53.404;-1.502;2022-08-21T05:09:19;15.98;;;5.97;;
23866;SDS011;12114;53.404;-1.502;2022-08-21T05:11:45;14.25;;;5.63;;
23866;SDS011;12114;53.404;-1.502;2022-08-21T05:14:11;13.73;;;4.80;;
23866;SDS011;12114;53.404;-1.502;2022-08-21T05:16:38;13.35;;;5.07;;
23866;SDS011;12114;53.404;-1.502;2022-08-21T05:19:07;14.80;;;5.05;;
23866;SDS011;12114;53.404;-1.502;2022-08-21T05:21:38;12.32;;;4.95;;
23866;SDS011;12114;53.404;-1.502;2022-08-21T05:24:04;13.20;;;4.85;;
23866;SDS011;12114;53.404;-1.502;2022-08-21T05:26:29;13.70;;;4.85;;
23866;SDS011;12114;53.404;-1.502;2022-08-21T05:28:55;10.57;;;4.97;;
23866;SDS011;12114;53.404;-1.502;2022-08-21T05:31:21;11.35;;;4.65;;
23866;SDS011;12114;53.404;-1.502;2022-08-21T05:33:47;12.13;;;4.97;;
23866;SDS011;12114;53.404;-1.502;2022-08-21T05:36:12;18.10;;;4.30;;
23866;SDS011;12114;53.404;-1.502;2022-08-21T05:38:38;13.48;;;4.65;;
23866;SDS011;12114;53.404;-1.502;2022-08-21T05:41:04;12.45;;;4.43;;
23866;SDS011;12114;53.404;-1.502;2022-08-21T05:43:29;12.32;;;4.55;;
23866;SDS011;12114;53.404;-1.502;2022-08-21T05:45:55;12.85;;;4.22;;
23866;SDS011;12114;53.404;-1.502;2022-08-21T05:48:21;12.85;;;4.75;;
23866;SDS011;12114;53.404;-1.502;2022-08-21T05:50:48;12.70;;;4.82;;
23866;SDS011;12114;53.404;-1.502;2022-08-21T05:53:16;16.23;;;4.50;;
23866;SDS011;12114;53.404;-1.502;2022-08-21T05:55:43;11.32;;;4.32;;
23866;SDS011;12114;53.404;-1.502;2022-08-21T05:58:09;13.52;;;4.78;;
23866;SDS011;12114;53.404;-1.502;2022-08-21T06:00:34;14.93;;;4.60;;
23866;SDS011;12114;53.404;-1.502;2022-08-21T06:03:00;11.02;;;4.18;;
23866;SDS011;12114;53.404;-1.502;2022-08-21T06:05:25;7.88;;;3.78;;
23866;SDS011;12114;53.404;-1.502;2022-08-21T06:07:54;9.73;;;3.25;;
23866;SDS011;12114;53.404;-1.502;2022-08-21T06:10:19;9.63;;;3.00;;
23866;SDS011;12114;53.404;-1.502;2022-08-21T06:12:45;9.45;;;2.67;;
23866;SDS011;12114;53.404;-1.502;2022-08-21T06:15:10;9.15;;;2.75;;
23866;SDS011;12114;53.404;-1.502;2022-08-21T06:17:36;9.90;;;2.35;;
23866;SDS011;12114;53.404;-1.502;2022-08-21T06:20:02;8.88;;;2.20;;
23866;SDS011;12114;53.404;-1.502;2022-08-21T06:22:28;7.15;;;2.13;;
23866;SDS011;12114;53.404;-1.502;2022-08-21T06:24:54;9.55;;;2.38;;
23866;SDS011;12114;53.404;-1.502;2022-08-21T06:27:19;12.05;;;2.55;;
23866;SDS011;12114;53.404;-1.502;2022-08-21T06:29:45;11.05;;;1.92;;
23866;SDS011;12114;53.404;-1.502;2022-08-21T06:32:12;11.93;;;2.38;;
23866;SDS011;12114;53.404;-1.502;2022-08-21T06:34:38;9.02;;;2.13;;
23866;SDS011;12114;53.404;-1.502;2022-08-21T06:37:04;6.70;;;2.03;;
23866;SDS011;12114;53.404;-1.502;2022-08-21T06:39:30;13.57;;;2.35;;
23866;SDS011;12114;53.404;-1.502;2022-08-21T06:41:55;14.55;;;2.42;;
23866;SDS011;12114;53.404;-1.502;2022-08-21T06:44:21;7.03;;;1.73;;
23866;SDS011;12114;53.404;-1.502;2022-08-21T06:46:46;9.65;;;2.58;;
23866;SDS011;12114;53.404;-1.502;2022-08-21T06:49:11;9.65;;;2.60;;
23866;SDS011;12114;53.404;-1.502;2022-08-21T06:51:38;9.82;;;2.28;;
23866;SDS011;12114;53.404;-1.502;2022-08-21T06:54:04;7.50;;;2.15;;
23866;SDS011;12114;53.404;-1.502;2022-08-21T06:56:29;6.30;;;1.95;;
23866;SDS011;12114;53.404;-1.502;2022-08-21T06:58:55;9.38;;;2.08;;
23866;SDS011;12114;53.404;-1.502;2022-08-21T07:01:21;10.65;;;2.40;;
23866;SDS011;12114;53.404;-1.502;2022-08-21T07:03:48;8.48;;;2.13;;
23866;SDS011;12114;53.404;-1.502;2022-08-21T07:06:14;10.00;;;2.22;;
23866;SDS011;12114;53.404;-1.502;2022-08-21T07:08:39;10.32;;;2.38;;
23866;SDS011;12114;53.404;-1.502;2022-08-21T07:11:07;11.50;;;2.80;;
23866;SDS011;12114;53.404;-1.502;2022-08-21T07:13:34;8.32;;;2.00;;
23866;SDS011;12114;53.404;-1.502;2022-08-21T07:16:00;9.10;;;2.58;;
23866;SDS011;12114;53.404;-1.502;2022-08-21T07:18:25;10.25;;;2.58;;
23866;SDS011;12114;53.404;-1.502;2022-08-21T07:20:51;14.20;;;3.00;;
23866;SDS011;12114;53.404;-1.502;2022-08-21T07:23:22;11.48;;;2.70;;
23866;SDS011;12114;53.404;-1.502;2022-08-21T07:25:48;10.38;;;2.70;;
23866;SDS011;12114;53.404;-1.502;2022-08-21T07:28:14;11.20;;;2.35;;
23866;SDS011;12114;53.404;-1.502;2022-08-21T07:30:39;11.35;;;2.70;;
23866;SDS011;12114;53.404;-1.502;2022-08-21T07:33:04;7.35;;;2.38;;
23866;SDS011;12114;53.404;-1.502;2022-08-21T07:35:30;9.77;;;2.88;;
23866;SDS011;12114;53.404;-1.502;2022-08-21T07:37:56;7.75;;;2.50;;
23866;SDS011;12114;53.404;-1.502;2022-08-21T07:40:22;10.48;;;2.78;;
23866;SDS011;12114;53.404;-1.502;2022-08-21T07:42:48;10.23;;;2.75;;
23866;SDS011;12114;53.404;-1.502;2022-08-21T07:45:16;7.72;;;2.67;;
23866;SDS011;12114;53.404;-1.502;2022-08-21T07:47:42;9.73;;;2.72;;
23866;SDS011;12114;53.404;-1.502;2022-08-21T07:50:07;5.43;;;1.77;;
23866;SDS011;12114;53.404;-1.502;2022-08-21T07:52:34;6.55;;;1.67;;
23866;SDS011;12114;53.404;-1.502;2022-08-21T07:54:59;13.57;;;2.78;;
23866;SDS011;12114;53.404;-1.502;2022-08-21T07:57:25;12.70;;;1.88;;
23866;SDS011;12114;53.404;-1.502;2022-08-21T07:59:50;10.55;;;2.08;;
23866;SDS011;12114;53.404;-1.502;2022-08-21T08:02:25;8.15;;;1.67;;
23866;SDS011;12114;53.404;-1.502;2022-08-21T08:09:46;6.88;;;1.77;;
23866;SDS011;12114;53.404;-1.502;2022-08-21T08:12:11;6.75;;;1.50;;
23866;SDS011;12114;53.404;-1.502;2022-08-21T08:14:37;5.47;;;1.45;;
23866;SDS011;12114;53.404;-1.502;2022-08-21T08:17:02;7.45;;;1.65;;
23866;SDS011;12114;53.404;-1.502;2022-08-21T08:19:28;7.68;;;1.65;;
23866;SDS011;12114;53.404;-1.502;2022-08-21T08:21:53;10.05;;;1.55;;
23866;SDS011;12114;53.404;-1.502;2022-08-21T08:24:19;7.35;;;1.60;;
23866;SDS011;12114;53.404;-1.502;2022-08-21T08:26:44;6.43;;;1.30;;
23866;SDS011;12114;53.404;-1.502;2022-08-21T08:29:11;5.60;;;1.10;;
23866;SDS011;12114;53.404;-1.502;2022-08-21T08:31:36;7.25;;;1.30;;
23866;SDS011;12114;53.404;-1.502;2022-08-21T08:34:02;8.95;;;1.67;;
23866;SDS011;12114;53.404;-1.502;2022-08-21T08:36:34;8.05;;;1.50;;
23866;SDS011;12114;53.404;-1.502;2022-08-21T08:39:00;6.45;;;1.42;;
23866;SDS011;12114;53.404;-1.502;2022-08-21T08:41:26;5.75;;;1.27;;
23866;SDS011;12114;53.404;-1.502;2022-08-21T08:43:52;4.25;;;1.30;;
23866;SDS011;12114;53.404;-1.502;2022-08-21T08:46:19;9.63;;;1.73;;
23866;SDS011;12114;53.404;-1.502;2022-08-21T08:51:16;8.30;;;1.67;;
23866;SDS011;12114;53.404;-1.502;2022-08-21T08:53:49;6.95;;;1.73;;
23866;SDS011;12114;53.404;-1.502;2022-08-21T08:56:26;9.82;;;1.80;;
23866;SDS011;12114;53.404;-1.502;2022-08-21T09:01:18;6.43;;;1.42;;
23866;SDS011;12114;53.404;-1.502;2022-08-21T09:03:45;8.88;;;1.77;;
23866;SDS011;12114;53.404;-1.502;2022-08-21T09:11:29;8.47;;;1.40;;
23866;SDS011;12114;53.404;-1.502;2022-08-21T09:21:58;7.93;;;2.08;;
23866;SDS011;12114;53.404;-1.502;2022-08-21T09:27:07;7.30;;;1.30;;
23866;SDS011;12114;53.404;-1.502;2022-08-21T09:29:34;8.90;;;1.90;;
23866;SDS011;12114;53.404;-1.502;2022-08-21T09:32:00;5.88;;;1.60;;
23866;SDS011;12114;53.404;-1.502;2022-08-21T09:34:27;6.63;;;1.50;;
23866;SDS011;12114;53.404;-1.502;2022-08-21T09:36:52;7.53;;;1.35;;
23866;SDS011;12114;53.404;-1.502;2022-08-21T09:39:28;5.43;;;1.60;;
23866;SDS011;12114;53.404;-1.502;2022-08-21T09:41:55;5.07;;;1.25;;
23866;SDS011;12114;53.404;-1.502;2022-08-21T09:44:25;6.88;;;1.40;;
23866;SDS011;12114;53.404;-1.502;2022-08-21T09:46:55;7.10;;;1.17;;
23866;SDS011;12114;53.404;-1.502;2022-08-21T09:51:53;6.18;;;1.08;;
23866;SDS011;12114;53.404;-1.502;2022-08-21T09:54:20;5.80;;;1.20;;
23866;SDS011;12114;53.404;-1.502;2022-08-21T09:57:31;6.10;;;1.20;;
23866;SDS011;12114;53.404;-1.502;2022-08-21T09:59:55;8.10;;;1.40;;
23866;SDS011;12114;53.404;-1.502;2022-08-21T10:02:33;7.05;;;1.38;;
23866;SDS011;12114;53.404;-1.502;2022-08-21T10:05:07;5.97;;;1.40;;
23866;SDS011;12114;53.404;-1.502;2022-08-21T10:07:35;4.78;;;1.20;;
23866;SDS011;12114;53.404;-1.502;2022-08-21T10:10:04;6.85;;;1.35;;
23866;SDS011;12114;53.404;-1.502;2022-08-21T10:12:32;7.18;;;1.38;;
23866;SDS011;12114;53.404;-1.502;2022-08-21T10:17:35;6.72;;;1.08;;
23866;SDS011;12114;53.404;-1.502;2022-08-21T10:20:14;5.80;;;1.13;;
23866;SDS011;12114;53.404;-1.502;2022-08-21T10:30:12;4.95;;;1.33;;
23866;SDS011;12114;53.404;-1.502;2022-08-21T10:35:08;7.30;;;1.67;;
23866;SDS011;12114;53.404;-1.502;2022-08-21T10:37:48;5.15;;;1.30;;
23866;SDS011;12114;53.404;-1.502;2022-08-21T10:43:07;7.07;;;1.65;;
23866;SDS011;12114;53.404;-1.502;2022-08-21T10:45:48;7.68;;;1.40;;
23866;SDS011;12114;53.404;-1.502;2022-08-21T10:50:48;8.02;;;1.52;;
23866;SDS011;12114;53.404;-1.502;2022-08-21T10:56:01;6.20;;;1.30;;
23866;SDS011;12114;53.404;-1.502;2022-08-21T10:58:30;4.95;;;1.20;;
23866;SDS011;12114;53.404;-1.502;2022-08-21T11:01:20;6.70;;;1.60;;
23866;SDS011;12114;53.404;-1.502;2022-08-21T11:03:43;5.47;;;1.27;;
23866;SDS011;12114;53.404;-1.502;2022-08-21T11:08:40;6.82;;;1.48;;
23866;SDS011;12114;53.404;-1.502;2022-08-21T11:13:48;5.07;;;1.10;;
23866;SDS011;12114;53.404;-1.502;2022-08-21T11:18:46;7.75;;;1.30;;
23866;SDS011;12114;53.404;-1.502;2022-08-21T11:23:56;6.97;;;1.55;;
23866;SDS011;12114;53.404;-1.502;2022-08-21T11:26:29;7.18;;;1.02;;
23866;SDS011;12114;53.404;-1.502;2022-08-21T11:29:00;6.55;;;1.13;;
23866;SDS011;12114;53.404;-1.502;2022-08-21T11:31:40;3.85;;;1.02;;
23866;SDS011;12114;53.404;-1.502;2022-08-21T11:34:13;6.78;;;1.50;;
23866;SDS011;12114;53.404;-1.502;2022-08-21T11:36:45;5.10;;;1.35;;
23866;SDS011;12114;53.404;-1.502;2022-08-21T11:47:12;7.20;;;1.35;;
23866;SDS011;12114;53.404;-1.502;2022-08-21T11:49:46;6.72;;;1.75;;
23866;SDS011;12114;53.404;-1.502;2022-08-21T11:59:43;6.07;;;1.00;;
23866;SDS011;12114;53.404;-1.502;2022-08-21T12:02:16;6.43;;;1.00;;
23866;SDS011;12114;53.404;-1.502;2022-08-21T12:04:52;5.18;;;1.05;;
23866;SDS011;12114;53.404;-1.502;2022-08-21T12:09:55;2.80;;;0.80;;
23866;SDS011;12114;53.404;-1.502;2022-08-21T12:12:28;4.93;;;0.93;;
23866;SDS011;12114;53.404;-1.502;2022-08-21T12:15:06;5.68;;;1.17;;
23866;SDS011;12114;53.404;-1.502;2022-08-21T12:17:36;5.82;;;1.35;;
23866;SDS011;12114;53.404;-1.502;2022-08-21T12:20:56;6.28;;;1.10;;
23866;SDS011;12114;53.404;-1.502;2022-08-21T12:23:33;4.97;;;1.00;;
23866;SDS011;12114;53.404;-1.502;2022-08-21T12:25:41;6.47;;;1.27;;
23866;SDS011;12114;53.404;-1.502;2022-08-21T12:28:08;3.35;;;1.20;;
23866;SDS011;12114;53.404;-1.502;2022-08-21T12:30:37;4.53;;;1.10;;
23866;SDS011;12114;53.404;-1.502;2022-08-21T12:33:18;6.93;;;1.10;;
23866;SDS011;12114;53.404;-1.502;2022-08-21T12:35:44;4.95;;;1.15;;
23866;SDS011;12114;53.404;-1.502;2022-08-21T12:41:01;4.60;;;1.23;;
23866;SDS011;12114;53.404;-1.502;2022-08-21T12:43:31;3.53;;;1.23;;
23866;SDS011;12114;53.404;-1.502;2022-08-21T12:45:58;3.55;;;1.00;;
23866;SDS011;12114;53.404;-1.502;2022-08-21T12:48:28;2.28;;;0.93;;
23866;SDS011;12114;53.404;-1.502;2022-08-21T12:53:50;7.00;;;1.45;;
23866;SDS011;12114;53.404;-1.502;2022-08-21T12:56:17;3.85;;;1.35;;
23866;SDS011;12114;53.404;-1.502;2022-08-21T12:58:47;2.60;;;1.10;;
23866;SDS011;12114;53.404;-1.502;2022-08-21T13:01:25;5.88;;;1.30;;
23866;SDS011;12114;53.404;-1.502;2022-08-21T13:03:53;4.43;;;1.08;;
23866;SDS011;12114;53.404;-1.502;2022-08-21T13:06:19;4.65;;;1.40;;
23866;SDS011;12114;53.404;-1.502;2022-08-21T13:08:45;4.50;;;1.10;;
23866;SDS011;12114;53.404;-1.502;2022-08-21T13:11:12;4.88;;;1.40;;
23866;SDS011;12114;53.404;-1.502;2022-08-21T13:13:38;6.00;;;0.95;;
23866;SDS011;12114;53.404;-1.502;2022-08-21T13:16:05;4.53;;;1.20;;
23866;SDS011;12114;53.404;-1.502;2022-08-21T13:18:33;4.53;;;0.90;;
23866;SDS011;12114;53.404;-1.502;2022-08-21T13:21:03;3.88;;;0.88;;
23866;SDS011;12114;53.404;-1.502;2022-08-21T13:23:31;5.80;;;1.20;;
23866;SDS011;12114;53.404;-1.502;2022-08-21T13:25:57;5.32;;;1.15;;
23866;SDS011;12114;53.404;-1.502;2022-08-21T13:28:23;3.67;;;1.05;;
23866;SDS011;12114;53.404;-1.502;2022-08-21T13:30:52;7.05;;;1.23;;
23866;SDS011;12114;53.404;-1.502;2022-08-21T13:33:19;3.47;;;1.00;;
23866;SDS011;12114;53.404;-1.502;2022-08-21T13:35:47;4.25;;;1.10;;
23866;SDS011;12114;53.404;-1.502;2022-08-21T13:38:13;5.57;;;1.60;;
23866;SDS011;12114;53.404;-1.502;2022-08-21T13:40:44;8.27;;;1.20;;
23866;SDS011;12114;53.404;-1.502;2022-08-21T13:43:20;6.45;;;1.30;;
23866;SDS011;12114;53.404;-1.502;2022-08-21T13:45:49;4.13;;;0.93;;
23866;SDS011;12114;53.404;-1.502;2022-08-21T13:48:14;4.68;;;1.10;;
23866;SDS011;12114;53.404;-1.502;2022-08-21T13:50:40;4.05;;;1.00;;
23866;SDS011;12114;53.404;-1.502;2022-08-21T13:53:07;4.03;;;1.02;;
23866;SDS011;12114;53.404;-1.502;2022-08-21T13:55:43;4.18;;;1.30;;
23866;SDS011;12114;53.404;-1.502;2022-08-21T13:58:09;5.88;;;1.42;;
23866;SDS011;12114;53.404;-1.502;2022-08-21T14:00:46;5.60;;;1.27;;
23866;SDS011;12114;53.404;-1.502;2022-08-21T14:03:13;5.93;;;1.10;;
23866;SDS011;12114;53.404;-1.502;2022-08-21T14:05:45;4.70;;;1.27;;
23866;SDS011;12114;53.404;-1.502;2022-08-21T14:08:11;5.85;;;1.27;;
23866;SDS011;12114;53.404;-1.502;2022-08-21T14:10:44;3.17;;;1.20;;
23866;SDS011;12114;53.404;-1.502;2022-08-21T14:13:56;5.25;;;1.48;;
23866;SDS011;12114;53.404;-1.502;2022-08-21T14:16:00;6.05;;;1.52;;
23866;SDS011;12114;53.404;-1.502;2022-08-21T14:18:26;4.72;;;1.10;;
23866;SDS011;12114;53.404;-1.502;2022-08-21T14:21:08;5.35;;;1.30;;
23866;SDS011;12114;53.404;-1.502;2022-08-21T14:23:38;2.92;;;1.05;;
23866;SDS011;12114;53.404;-1.502;2022-08-21T14:26:04;5.68;;;1.10;;
23866;SDS011;12114;53.404;-1.502;2022-08-21T14:28:31;3.70;;;1.10;;
23866;SDS011;12114;53.404;-1.502;2022-08-21T14:30:57;6.95;;;1.20;;
23866;SDS011;12114;53.404;-1.502;2022-08-21T14:33:30;3.83;;;0.90;;
23866;SDS011;12114;53.404;-1.502;2022-08-21T14:35:56;5.70;;;1.35;;
23866;SDS011;12114;53.404;-1.502;2022-08-21T14:38:23;6.30;;;1.10;;
23866;SDS011;12114;53.404;-1.502;2022-08-21T14:40:53;4.20;;;1.10;;
23866;SDS011;12114;53.404;-1.502;2022-08-21T14:43:20;5.35;;;1.10;;
23866;SDS011;12114;53.404;-1.502;2022-08-21T14:45:45;4.43;;;1.20;;
23866;SDS011;12114;53.404;-1.502;2022-08-21T14:48:11;6.07;;;1.40;;
23866;SDS011;12114;53.404;-1.502;2022-08-21T14:50:37;5.13;;;1.40;;
23866;SDS011;12114;53.404;-1.502;2022-08-21T14:53:02;2.97;;;1.15;;
23866;SDS011;12114;53.404;-1.502;2022-08-21T14:55:29;4.25;;;1.10;;
23866;SDS011;12114;53.404;-1.502;2022-08-21T14:57:55;1.42;;;0.55;;
23866;SDS011;12114;53.404;-1.502;2022-08-21T15:00:24;5.55;;;1.20;;
23866;SDS011;12114;53.404;-1.502;2022-08-21T15:02:50;4.57;;;1.13;;
23866;SDS011;12114;53.404;-1.502;2022-08-21T15:05:16;5.97;;;1.10;;
23866;SDS011;12114;53.404;-1.502;2022-08-21T15:07:42;3.55;;;1.40;;
23866;SDS011;12114;53.404;-1.502;2022-08-21T15:10:08;4.65;;;1.10;;
23866;SDS011;12114;53.404;-1.502;2022-08-21T15:12:34;3.40;;;1.17;;
23866;SDS011;12114;53.404;-1.502;2022-08-21T15:14:59;5.07;;;1.00;;
23866;SDS011;12114;53.404;-1.502;2022-08-21T15:17:25;4.05;;;1.17;;
23866;SDS011;12114;53.404;-1.502;2022-08-21T15:19:50;2.20;;;1.02;;
23866;SDS011;12114;53.404;-1.502;2022-08-21T15:22:16;3.90;;;1.10;;
23866;SDS011;12114;53.404;-1.502;2022-08-21T15:24:41;3.88;;;1.08;;
23866;SDS011;12114;53.404;-1.502;2022-08-21T15:27:08;3.30;;;1.15;;
23866;SDS011;12114;53.404;-1.502;2022-08-21T15:29:34;3.60;;;1.08;;
23866;SDS011;12114;53.404;-1.502;2022-08-21T15:32:19;3.67;;;1.20;;
23866;SDS011;12114;53.404;-1.502;2022-08-21T15:34:47;5.60;;;0.95;;
23866;SDS011;12114;53.404;-1.502;2022-08-21T15:37:13;3.65;;;1.02;;
23866;SDS011;12114;53.404;-1.502;2022-08-21T15:39:38;3.92;;;1.02;;
23866;SDS011;12114;53.404;-1.502;2022-08-21T15:42:03;4.20;;;1.00;;
23866;SDS011;12114;53.404;-1.502;2022-08-21T15:44:29;4.75;;;1.05;;
23866;SDS011;12114;53.404;-1.502;2022-08-21T15:46:55;3.78;;;1.20;;
23866;SDS011;12114;53.404;-1.502;2022-08-21T15:49:21;4.07;;;1.17;;
23866;SDS011;12114;53.404;-1.502;2022-08-21T15:51:46;5.90;;;1.00;;
23866;SDS011;12114;53.404;-1.502;2022-08-21T15:54:14;4.80;;;1.02;;